Current Conditions
Mostly Scattered
Clouds



Pressure
1003.92 (hPa) - 29.65 (inHG)
Visibility

6.2 (mimiles) - 10.0 (km)
   Temperature
7  °C
45°F
2  °C
Dewpoint
71  %
 Humidity
   Wind Speed
11  kts
13  mph
21  km/h
5.8  m/s
   Wind Direction
 250°
West South
West
   Airport Data
EGHI
Location Southampton 35 mi (56.32 km)
Metar :EGHI 162120Z 25011G21KT 220V280 9999 SCT035 07/02 Q1004
Sun 16th February 21:20 pm
   Raw Metar Info
Raw METAR is the most common format in the world for the transmission of observational weather data. It is highly standardized through the International Civil Aviation Organization (ICAO), which allows it to be understood throughout most of the world.
   API Info
Data Provided by
https://www.checkwx.com/weather/EGHI
   © Info
CSS/SVG/PHP scripts were developed by weather34.com for use in the weather34 template © 2015-2020

Guide Info provided by Metar-Wikipedia